Boston, Massachusetts
Traffic Map
Current Weather Conditions
Boston, Massachusetts
Clear
Clear
18°
Feels Like: 18°
Wind Chill: 18° Ceiling: Unl
Heat Index: 18° Visibility: 10mi
Dew Point: 17° Wind: 8mph
Humidity: 90% Direction: 200° (SSW)
Pressure: 30.13in Gusts: 0mph
Raw Report DataKBOS 220654Z 20007KT 10SM CLR 18/17 A3013 RMK AO2 SLP203 T01830167
Traffic Incident Summary
Active as of:
Severity:
Category:
InformationThere was an issue retrieving the traffic information for this location. Please try a different location or try again shortly.
Advertisements
Track Severe Weather on mobile